createdAt,value
2023-05-02T00:00:46.791Z,100.00
2023-05-02T00:01:46.808Z,100.00
2023-05-02T00:02:46.896Z,100.00
2023-05-02T00:03:46.832Z,100.00
2023-05-02T00:04:46.762Z,100.00
2023-05-02T00:05:46.710Z,100.00
2023-05-02T00:06:46.877Z,100.00
2023-05-02T00:07:46.813Z,100.00
2023-05-02T00:08:46.683Z,100.00
2023-05-02T00:09:46.676Z,100.00
2023-05-02T00:10:46.668Z,100.00
2023-05-02T00:11:46.653Z,100.00
2023-05-02T00:12:46.664Z,100.00
2023-05-02T00:13:46.671Z,100.00
2023-05-02T00:14:46.633Z,100.00
2023-05-02T00:15:46.605Z,100.00
2023-05-02T00:16:46.660Z,100.00
2023-05-02T00:17:46.605Z,100.00
2023-05-02T00:18:46.583Z,100.00
2023-05-02T00:19:46.551Z,100.00
2023-05-02T00:20:46.537Z,100.00
2023-05-02T00:21:46.523Z,100.00
2023-05-02T00:22:46.506Z,100.00
2023-05-02T00:23:46.529Z,100.00
2023-05-02T00:24:46.485Z,100.00
2023-05-02T00:25:46.485Z,100.00
2023-05-02T00:26:46.463Z,100.00
2023-05-02T00:27:46.480Z,100.00
2023-05-02T00:28:46.435Z,100.00
2023-05-02T00:29:46.450Z,100.00
2023-05-02T00:30:46.644Z,100.00
2023-05-02T00:31:46.402Z,100.00
2023-05-02T00:32:46.391Z,100.00
2023-05-02T00:33:46.378Z,100.00
2023-05-02T00:34:46.358Z,100.00
2023-05-02T00:35:46.388Z,100.00
2023-05-02T00:36:46.328Z,100.00
2023-05-02T00:37:46.340Z,100.00
2023-05-02T00:38:46.321Z,100.00
2023-05-02T00:39:46.314Z,100.00
2023-05-02T00:40:46.289Z,100.00
2023-05-02T00:41:46.311Z,100.00
2023-05-02T00:42:46.271Z,100.00
2023-05-02T00:43:46.278Z,100.00
2023-05-02T00:44:46.251Z,100.00
2023-05-02T00:45:46.266Z,100.00
2023-05-02T00:46:46.258Z,100.00
2023-05-02T00:47:46.284Z,100.00
2023-05-02T00:48:46.180Z,100.00
2023-05-02T00:49:46.158Z,100.00
2023-05-02T00:50:46.162Z,100.00
2023-05-02T00:51:46.143Z,100.00
2023-05-02T00:52:46.139Z,100.00
2023-05-02T00:53:46.142Z,100.00
2023-05-02T00:54:46.112Z,100.00
2023-05-02T00:55:46.090Z,100.00
2023-05-02T00:56:46.074Z,100.00
2023-05-02T00:57:46.067Z,100.00
2023-05-02T00:58:46.063Z,100.00
2023-05-02T00:59:46.048Z,100.00
2023-05-02T01:00:46.021Z,100.00
2023-05-02T01:01:46.036Z,100.00
2023-05-02T01:02:46.031Z,100.00
2023-05-02T01:03:46.126Z,100.00
2023-05-02T01:04:45.983Z,100.00
2023-05-02T01:05:45.990Z,100.00
2023-05-02T01:06:46.071Z,100.00
2023-05-02T01:07:45.927Z,100.00
2023-05-02T01:08:45.923Z,100.00
2023-05-02T01:09:45.946Z,100.00
2023-05-02T01:10:45.921Z,100.00
2023-05-02T01:11:45.885Z,100.00
2023-05-02T01:12:45.878Z,100.00
2023-05-02T01:13:45.853Z,100.00
2023-05-02T01:14:45.843Z,100.00
2023-05-02T01:15:45.907Z,100.00
2023-05-02T01:16:45.896Z,100.00
2023-05-02T01:17:45.874Z,100.00
2023-05-02T01:18:45.794Z,100.00
2023-05-02T01:19:45.814Z,100.00
2023-05-02T01:20:45.795Z,100.00
2023-05-02T01:21:45.776Z,100.00
2023-05-02T01:22:45.747Z,100.00
2023-05-02T01:23:45.764Z,100.00
2023-05-02T01:24:45.714Z,100.00
2023-05-02T01:25:45.695Z,100.00
2023-05-02T01:26:45.721Z,100.00
2023-05-02T01:27:45.676Z,100.00
2023-05-02T01:28:45.665Z,100.00
2023-05-02T01:29:45.679Z,100.00
2023-05-02T01:30:45.633Z,100.00
2023-05-02T01:31:45.681Z,100.00
2023-05-02T01:32:45.646Z,100.00
2023-05-02T01:33:45.594Z,100.00
2023-05-02T01:34:45.597Z,100.00
2023-05-02T01:35:45.574Z,100.00
2023-05-02T01:36:45.564Z,100.00
2023-05-02T01:37:45.581Z,100.00
2023-05-02T01:38:45.540Z,100.00
2023-05-02T01:39:45.537Z,100.00
2023-05-02T01:40:45.518Z,100.00
2023-05-02T01:41:45.500Z,100.00
2023-05-02T01:42:45.501Z,100.00
2023-05-02T01:43:45.503Z,100.00
2023-05-02T01:44:45.504Z,100.00
2023-05-02T01:45:45.454Z,100.00
2023-05-02T01:46:45.501Z,100.00
2023-05-02T01:47:45.463Z,100.00
2023-05-02T01:48:45.418Z,100.00
2023-05-02T01:49:45.420Z,100.00
2023-05-02T01:50:45.409Z,100.00
2023-05-02T01:51:45.393Z,100.00
2023-05-02T01:52:45.385Z,100.00
2023-05-02T01:53:45.348Z,100.00
2023-05-02T01:54:45.341Z,100.00
2023-05-02T01:55:45.348Z,100.00
2023-05-02T01:56:45.316Z,100.00
2023-05-02T01:57:45.303Z,100.00
2023-05-02T01:58:45.297Z,100.00
2023-05-02T01:59:45.276Z,100.00
2023-05-02T02:00:45.385Z,100.00
2023-05-02T02:01:45.351Z,100.00
2023-05-02T02:02:45.286Z,100.00
2023-05-02T02:03:45.259Z,100.00
2023-05-02T02:04:45.291Z,100.00
2023-05-02T02:05:45.208Z,100.00
2023-05-02T02:06:45.369Z,100.00
2023-05-02T02:07:45.221Z,100.00
2023-05-02T02:08:45.183Z,100.00
2023-05-02T02:09:45.151Z,100.00
2023-05-02T02:10:45.146Z,100.00
2023-05-02T02:11:45.132Z,100.00
2023-05-02T02:12:45.136Z,100.00
2023-05-02T02:13:45.114Z,100.00
2023-05-02T02:14:45.090Z,100.00
2023-05-02T02:15:45.084Z,100.00
2023-05-02T02:16:45.166Z,100.00
2023-05-02T02:17:45.088Z,100.00
2023-05-02T02:18:45.061Z,100.00
2023-05-02T02:19:45.029Z,100.00
2023-05-02T02:20:45.028Z,100.00
2023-05-02T02:21:45.001Z,100.00
2023-05-02T02:22:44.990Z,100.00
2023-05-02T02:23:44.981Z,100.00
2023-05-02T02:24:44.990Z,100.00
2023-05-02T02:25:44.972Z,100.00
2023-05-02T02:26:44.928Z,100.00
2023-05-02T02:27:44.942Z,100.00
2023-05-02T02:28:44.930Z,100.00
2023-05-02T02:29:44.922Z,100.00
2023-05-02T02:30:45.005Z,100.00
2023-05-02T02:31:44.888Z,100.00
2023-05-02T02:32:44.897Z,100.00
2023-05-02T02:33:44.847Z,100.00
2023-05-02T02:34:44.846Z,100.00
2023-05-02T02:35:44.828Z,100.00
2023-05-02T02:36:44.841Z,100.00
2023-05-02T02:37:44.793Z,100.00
2023-05-02T02:38:44.807Z,100.00
2023-05-02T02:39:44.758Z,100.00
2023-05-02T02:40:44.783Z,100.00
2023-05-02T02:41:44.766Z,100.00
2023-05-02T02:42:44.747Z,100.00
2023-05-02T02:43:44.718Z,100.00
2023-05-02T02:44:44.711Z,100.00
2023-05-02T02:45:44.706Z,100.00
2023-05-02T02:46:44.757Z,100.00
2023-05-02T02:47:44.744Z,100.00
2023-05-02T02:48:44.648Z,100.00
2023-05-02T02:49:44.648Z,100.00
2023-05-02T02:50:44.624Z,100.00
2023-05-02T02:51:44.622Z,100.00
2023-05-02T02:52:44.602Z,100.00
2023-05-02T02:53:44.619Z,100.00
2023-05-02T02:54:44.580Z,100.00
2023-05-02T02:55:44.591Z,100.00
2023-05-02T02:56:44.555Z,100.00
2023-05-02T02:57:44.547Z,100.00
2023-05-02T02:58:44.550Z,100.00
2023-05-02T02:59:44.536Z,100.00
2023-05-02T03:00:44.505Z,100.00
2023-05-02T03:01:44.522Z,100.00
2023-05-02T03:02:44.536Z,100.00
2023-05-02T03:03:44.538Z,100.00
2023-05-02T03:04:44.501Z,100.00
2023-05-02T03:05:44.457Z,100.00
2023-05-02T03:06:44.474Z,100.00
2023-05-02T03:07:44.412Z,100.00
2023-05-02T03:08:44.400Z,100.00
2023-05-02T03:09:44.392Z,100.00
2023-05-02T03:10:44.400Z,100.00
2023-05-02T03:11:44.373Z,100.00
2023-05-02T03:12:44.372Z,100.00
2023-05-02T03:13:44.339Z,100.00
2023-05-02T03:14:44.325Z,100.00
2023-05-02T03:15:44.342Z,100.00
2023-05-02T03:16:44.355Z,100.00
2023-05-02T03:17:44.377Z,100.00
2023-05-02T03:18:44.269Z,100.00
2023-05-02T03:19:44.271Z,100.00
2023-05-02T03:20:44.248Z,100.00
2023-05-02T03:21:44.231Z,100.00
2023-05-02T03:22:44.241Z,100.00
2023-05-02T03:23:44.220Z,100.00
2023-05-02T03:24:44.189Z,100.00
2023-05-02T03:25:44.184Z,100.00
2023-05-02T03:26:44.172Z,100.00
2023-05-02T03:27:44.181Z,100.00
2023-05-02T03:28:44.168Z,100.00
2023-05-02T03:29:44.126Z,100.00
2023-05-02T03:30:44.140Z,100.00
2023-05-02T03:31:44.172Z,100.00
2023-05-02T03:32:44.139Z,100.00
2023-05-02T03:33:44.081Z,100.00
2023-05-02T03:34:44.103Z,100.00
2023-05-02T03:35:44.082Z,100.00
2023-05-02T03:36:44.041Z,100.00
2023-05-02T03:37:44.034Z,100.00
2023-05-02T03:38:44.024Z,100.00
2023-05-02T03:39:44.039Z,100.00
2023-05-02T03:40:44.008Z,100.00
2023-05-02T03:41:43.993Z,100.00
2023-05-02T03:42:43.971Z,100.00
2023-05-02T03:43:43.950Z,100.00
2023-05-02T03:44:43.948Z,100.00
2023-05-02T03:45:43.955Z,100.00
2023-05-02T03:46:43.956Z,100.00
2023-05-02T03:47:43.936Z,100.00
2023-05-02T03:48:43.895Z,100.00
2023-05-02T03:49:43.889Z,100.00
2023-05-02T03:50:43.875Z,100.00
2023-05-02T03:51:43.901Z,100.00
2023-05-02T03:52:43.849Z,100.00
2023-05-02T03:53:43.835Z,100.00
2023-05-02T03:54:43.867Z,100.00
2023-05-02T03:55:43.811Z,100.00
2023-05-02T03:56:43.787Z,100.00
2023-05-02T03:57:43.805Z,100.00
2023-05-02T03:58:43.786Z,100.00
2023-05-02T03:59:43.760Z,100.00
2023-05-02T04:00:43.752Z,100.00
2023-05-02T04:01:43.765Z,100.00
2023-05-02T04:02:43.812Z,100.00
2023-05-02T04:03:43.782Z,100.00
2023-05-02T04:04:43.955Z,100.00
2023-05-02T04:05:43.704Z,100.00
2023-05-02T04:06:43.769Z,100.00
2023-05-02T04:07:43.652Z,100.00
2023-05-02T04:08:43.679Z,100.00
2023-05-02T04:09:43.646Z,100.00
2023-05-02T04:10:43.617Z,100.00
2023-05-02T04:11:43.609Z,100.00
2023-05-02T04:12:43.601Z,100.00
2023-05-02T04:13:43.581Z,100.00
2023-05-02T04:14:43.595Z,100.00
2023-05-02T04:15:43.581Z,100.00
2023-05-02T04:16:43.565Z,100.00
2023-05-02T04:17:43.549Z,100.00
2023-05-02T04:18:43.521Z,100.00
2023-05-02T04:19:43.506Z,100.00
2023-05-02T04:20:43.510Z,100.00
2023-05-02T04:21:43.481Z,100.00
2023-05-02T04:22:43.513Z,100.00
2023-05-02T04:23:43.444Z,100.00
2023-05-02T04:24:43.434Z,100.00
2023-05-02T04:25:43.454Z,100.00
2023-05-02T04:26:43.428Z,100.00
2023-05-02T04:27:43.428Z,100.00
2023-05-02T04:28:43.459Z,100.00
2023-05-02T04:29:43.393Z,100.00
2023-05-02T04:30:43.389Z,100.00
2023-05-02T04:31:43.366Z,100.00
2023-05-02T04:32:43.376Z,100.00
2023-05-02T04:33:43.350Z,100.00
2023-05-02T04:34:43.315Z,100.00
2023-05-02T04:35:43.300Z,100.00
2023-05-02T04:36:43.300Z,100.00
2023-05-02T04:37:43.314Z,100.00
2023-05-02T04:38:43.286Z,100.00
2023-05-02T04:39:43.249Z,100.00
2023-05-02T04:40:43.250Z,100.00
2023-05-02T04:41:43.239Z,100.00
2023-05-02T04:42:43.223Z,100.00
2023-05-02T04:43:43.199Z,100.00
2023-05-02T04:44:43.181Z,100.00
2023-05-02T04:45:43.163Z,100.00
2023-05-02T04:46:43.267Z,100.00
2023-05-02T04:47:43.150Z,100.00
2023-05-02T04:48:43.141Z,100.00
2023-05-02T04:49:43.123Z,100.00
2023-05-02T04:50:43.112Z,100.00
2023-05-02T04:51:43.089Z,100.00
2023-05-02T04:52:43.113Z,100.00
2023-05-02T04:53:43.080Z,100.00
2023-05-02T04:54:43.064Z,100.00
2023-05-02T04:55:43.067Z,100.00
2023-05-02T04:56:43.026Z,100.00
2023-05-02T04:57:43.039Z,100.00
2023-05-02T04:58:43.038Z,100.00
2023-05-02T04:59:43.018Z,100.00
2023-05-02T05:00:42.984Z,100.00
2023-05-02T05:01:43.069Z,100.00
2023-05-02T05:02:43.039Z,100.00
2023-05-02T05:03:42.977Z,100.00
2023-05-02T05:04:42.946Z,100.00
2023-05-02T05:05:42.981Z,100.00
2023-05-02T05:06:42.930Z,100.00
2023-05-02T05:07:42.905Z,100.00
2023-05-02T05:08:42.873Z,100.00
2023-05-02T05:09:42.858Z,100.00
2023-05-02T05:10:42.868Z,100.00
2023-05-02T05:11:42.834Z,100.00
2023-05-02T05:12:42.838Z,100.00
2023-05-02T05:13:42.826Z,100.00
2023-05-02T05:14:42.801Z,100.00
2023-05-02T05:15:42.836Z,100.00
2023-05-02T05:16:42.860Z,100.00
2023-05-02T05:17:42.799Z,100.00
2023-05-02T05:18:42.778Z,100.00
2023-05-02T05:19:42.750Z,100.00
2023-05-02T05:20:42.730Z,100.00
2023-05-02T05:21:42.714Z,100.00
2023-05-02T05:22:42.730Z,100.00
2023-05-02T05:23:42.697Z,100.00
2023-05-02T05:24:42.670Z,100.00
2023-05-02T05:25:45.053Z,100.00
2023-05-02T05:26:42.660Z,100.00
2023-05-02T05:27:42.638Z,100.00
2023-05-02T05:28:42.653Z,100.00
2023-05-02T05:29:42.610Z,100.00
2023-05-02T05:30:42.604Z,100.00
2023-05-02T05:31:42.647Z,100.00
2023-05-02T05:32:42.616Z,100.00
2023-05-02T05:33:42.577Z,99.99
2023-05-02T05:34:42.591Z,99.71
2023-05-02T05:35:42.535Z,99.64
2023-05-02T05:36:42.527Z,99.55
2023-05-02T05:37:42.503Z,99.37
2023-05-02T05:38:42.560Z,99.17
2023-05-02T05:39:42.499Z,99.14
2023-05-02T05:40:42.481Z,99.04
2023-05-02T05:41:42.475Z,99.12
2023-05-02T05:42:42.461Z,99.05
2023-05-02T05:43:42.433Z,99.00
2023-05-02T05:44:42.424Z,98.87
2023-05-02T05:46:03.433Z,98.83
2023-05-02T05:46:42.459Z,98.85
2023-05-02T05:47:42.424Z,98.87
2023-05-02T05:48:42.384Z,98.91
2023-05-02T05:49:42.354Z,98.74
2023-05-02T05:50:42.359Z,98.67
2023-05-02T05:51:42.351Z,98.65
2023-05-02T05:52:42.332Z,98.48
2023-05-02T05:53:42.301Z,98.39
2023-05-02T05:54:42.292Z,98.41
2023-05-02T05:55:42.542Z,98.19
2023-05-02T05:56:42.299Z,98.09
2023-05-02T05:57:42.259Z,98.17
2023-05-02T05:58:42.263Z,98.12
2023-05-02T05:59:42.246Z,98.30
2023-05-02T06:00:42.215Z,98.40
2023-05-02T06:01:42.224Z,98.38
2023-05-02T06:02:42.356Z,98.49
2023-05-02T06:03:42.286Z,98.59
2023-05-02T06:04:42.189Z,98.54
2023-05-02T06:05:42.144Z,98.42
2023-05-02T06:06:42.201Z,98.37
2023-05-02T06:07:42.160Z,98.24
2023-05-02T06:08:42.124Z,98.29
2023-05-02T06:09:42.124Z,98.43
2023-05-02T06:10:42.088Z,98.24
2023-05-02T06:11:42.134Z,98.06
2023-05-02T06:12:42.088Z,98.02
2023-05-02T06:13:42.073Z,98.14
2023-05-02T06:14:42.166Z,97.97
2023-05-02T06:15:42.072Z,98.10
2023-05-02T06:16:42.131Z,98.22
2023-05-02T06:17:42.063Z,98.06
2023-05-02T06:18:41.989Z,97.98
2023-05-02T06:19:42.004Z,97.82
2023-05-02T06:20:41.964Z,97.87
2023-05-02T06:21:41.960Z,98.03
2023-05-02T06:22:41.946Z,97.94
2023-05-02T06:23:41.930Z,97.80
2023-05-02T06:24:41.986Z,97.71
2023-05-02T06:25:41.931Z,97.11
2023-05-02T06:26:41.902Z,97.03
2023-05-02T06:27:41.883Z,96.86
2023-05-02T06:28:41.863Z,96.81
2023-05-02T06:29:41.901Z,96.65
2023-05-02T06:30:41.837Z,96.37
2023-05-02T06:31:41.881Z,95.83
2023-05-02T06:32:41.837Z,96.09
2023-05-02T06:33:41.796Z,96.14
2023-05-02T06:34:41.789Z,96.17
2023-05-02T06:35:41.807Z,95.98
2023-05-02T06:36:41.755Z,95.50
2023-05-02T06:37:41.764Z,95.69
2023-05-02T06:38:41.752Z,95.60
2023-05-02T06:39:41.745Z,95.46
2023-05-02T06:40:41.703Z,95.45
2023-05-02T06:41:41.711Z,95.33
2023-05-02T06:42:41.678Z,95.58
2023-05-02T06:43:41.686Z,95.49
2023-05-02T06:44:41.653Z,95.16
2023-05-02T06:45:41.635Z,94.88
2023-05-02T06:46:41.668Z,95.10
2023-05-02T06:47:41.654Z,95.01
2023-05-02T06:48:41.628Z,94.40
2023-05-02T06:49:41.589Z,94.88
2023-05-02T06:50:41.573Z,95.12
2023-05-02T06:51:41.569Z,95.05
2023-05-02T06:52:41.574Z,94.48
2023-05-02T06:53:41.547Z,94.00
2023-05-02T06:54:41.601Z,94.30
2023-05-02T06:55:41.527Z,94.98
2023-05-02T06:56:41.498Z,94.76
2023-05-02T06:57:41.497Z,94.71
2023-05-02T06:58:41.470Z,94.78
2023-05-02T06:59:41.484Z,94.32
2023-05-02T07:00:41.499Z,94.00
2023-05-02T07:01:41.746Z,94.17
2023-05-02T07:02:41.483Z,92.54
2023-05-02T07:03:41.435Z,90.88
2023-05-02T07:04:41.475Z,91.10
2023-05-02T07:05:41.407Z,91.66
2023-05-02T07:06:41.429Z,91.97
2023-05-02T07:07:41.351Z,91.03
2023-05-02T07:08:41.342Z,91.13
2023-05-02T07:09:41.348Z,91.49
2023-05-02T07:10:41.316Z,90.82
2023-05-02T07:11:41.328Z,90.33
2023-05-02T07:12:41.309Z,90.33
2023-05-02T07:13:41.294Z,90.22
2023-05-02T07:14:41.267Z,89.47
2023-05-02T07:15:41.253Z,89.91
2023-05-02T07:16:41.297Z,89.85
2023-05-02T07:17:41.283Z,88.83
2023-05-02T07:18:41.219Z,89.92
2023-05-02T07:19:43.387Z,88.56
2023-05-02T07:20:41.199Z,88.80
2023-05-02T07:21:41.614Z,89.46
2023-05-02T07:22:41.176Z,89.08
2023-05-02T07:23:41.193Z,88.73
2023-05-02T07:24:41.143Z,88.03
2023-05-02T07:25:41.137Z,88.76
2023-05-02T07:26:41.109Z,88.81
2023-05-02T07:27:41.093Z,89.58
2023-05-02T07:28:41.116Z,89.68
2023-05-02T07:29:41.091Z,89.27
2023-05-02T07:30:41.060Z,88.18
2023-05-02T07:31:41.066Z,88.60
2023-05-02T07:32:41.045Z,89.11
2023-05-02T07:33:41.031Z,88.50
2023-05-02T07:34:41.027Z,88.73
2023-05-02T07:35:40.991Z,89.23
2023-05-02T07:36:40.981Z,89.63
2023-05-02T07:37:40.977Z,90.42
2023-05-02T07:38:40.961Z,90.10
2023-05-02T07:39:40.987Z,90.03
2023-05-02T07:40:40.949Z,89.85
2023-05-02T07:41:40.917Z,90.60
2023-05-02T07:42:40.926Z,90.04
2023-05-02T07:43:40.891Z,90.00
2023-05-02T07:44:40.886Z,89.82
2023-05-02T07:45:40.986Z,89.35
2023-05-02T07:46:40.894Z,89.94
2023-05-02T07:47:40.854Z,90.87
2023-05-02T07:48:40.828Z,90.78
2023-05-02T07:49:40.824Z,89.78
2023-05-02T07:50:40.823Z,90.19
2023-05-02T07:51:40.788Z,90.86
2023-05-02T07:52:40.780Z,90.12
2023-05-02T07:53:40.759Z,90.42
2023-05-02T07:54:40.757Z,90.66
2023-05-02T07:55:40.774Z,90.11
2023-05-02T07:56:40.733Z,90.44
2023-05-02T07:57:40.733Z,90.93
2023-05-02T07:58:40.694Z,90.94
2023-05-02T07:59:40.691Z,91.03
2023-05-02T08:00:40.677Z,91.49
2023-05-02T08:01:40.678Z,91.12
2023-05-02T08:02:40.709Z,91.20
2023-05-02T08:03:40.850Z,91.48
2023-05-02T08:04:40.648Z,90.18
2023-05-02T08:05:40.610Z,89.80
2023-05-02T08:06:40.620Z,88.83
2023-05-02T08:07:40.610Z,88.85
2023-05-02T08:08:40.562Z,88.73
2023-05-02T08:09:40.581Z,88.85
2023-05-02T08:10:40.549Z,88.25
2023-05-02T08:11:40.537Z,87.57
2023-05-02T08:12:40.530Z,87.13
2023-05-02T08:13:40.538Z,86.72
2023-05-02T08:14:40.509Z,86.68
2023-05-02T08:15:40.524Z,86.36
2023-05-02T08:16:40.608Z,86.17
2023-05-02T08:17:40.468Z,86.49
2023-05-02T08:18:40.447Z,87.74
2023-05-02T08:19:40.451Z,88.25
2023-05-02T08:20:40.424Z,87.50
2023-05-02T08:21:40.414Z,88.50
2023-05-02T08:22:40.395Z,88.02
2023-05-02T08:23:40.381Z,88.00
2023-05-02T08:24:40.366Z,88.14
2023-05-02T08:25:40.370Z,88.27
2023-05-02T08:26:40.346Z,88.10
2023-05-02T08:27:40.327Z,87.79
2023-05-02T08:28:40.303Z,87.68
2023-05-02T08:29:40.315Z,87.83
2023-05-02T08:30:40.286Z,87.69
2023-05-02T08:31:40.372Z,87.67
2023-05-02T08:32:40.279Z,86.94
2023-05-02T08:33:40.256Z,86.66
2023-05-02T08:34:40.263Z,86.98
2023-05-02T08:35:40.222Z,87.80
2023-05-02T08:36:40.222Z,88.47
2023-05-02T08:37:40.223Z,88.05
2023-05-02T08:38:40.185Z,88.67
2023-05-02T08:39:40.173Z,88.84
2023-05-02T08:40:42.906Z,89.27
2023-05-02T08:41:40.157Z,89.39
2023-05-02T08:42:40.136Z,89.00
2023-05-02T08:43:40.140Z,89.26
2023-05-02T08:44:40.138Z,88.68
2023-05-02T08:45:40.099Z,89.36
2023-05-02T08:46:40.188Z,89.85
2023-05-02T08:47:40.196Z,88.48
2023-05-02T08:48:40.079Z,88.16
2023-05-02T08:49:40.048Z,88.83
2023-05-02T08:50:40.092Z,87.65
2023-05-02T08:51:41.360Z,86.93
2023-05-02T08:52:39.998Z,86.80
2023-05-02T08:53:39.992Z,86.83
2023-05-02T08:54:39.989Z,86.07
2023-05-02T08:55:40.082Z,85.16
2023-05-02T08:56:39.955Z,85.50
2023-05-02T08:57:39.939Z,85.98
2023-05-02T08:58:39.949Z,86.62
2023-05-02T08:59:39.918Z,85.94
2023-05-02T09:00:39.924Z,85.29
2023-05-02T09:01:39.997Z,85.44
2023-05-02T09:02:39.947Z,86.25
2023-05-02T09:03:39.859Z,84.87
2023-05-02T09:04:39.926Z,84.56
2023-05-02T09:05:39.835Z,82.55
2023-05-02T09:06:39.884Z,82.77
2023-05-02T09:07:39.813Z,82.64
2023-05-02T09:08:39.797Z,82.31
2023-05-02T09:09:39.794Z,82.03
2023-05-02T09:10:39.781Z,81.40
2023-05-02T09:11:39.881Z,82.15
2023-05-02T09:12:39.792Z,80.10
2023-05-02T09:13:39.757Z,80.43
2023-05-02T09:14:39.726Z,79.19
2023-05-02T09:15:39.732Z,79.50
2023-05-02T09:16:39.740Z,79.05
2023-05-02T09:17:39.761Z,80.54
2023-05-02T09:18:39.685Z,81.90
2023-05-02T09:19:39.661Z,81.38
2023-05-02T09:20:39.643Z,81.83
2023-05-02T09:21:39.638Z,81.96
2023-05-02T09:22:39.619Z,81.41
2023-05-02T09:23:39.634Z,79.59
2023-05-02T09:24:39.601Z,78.77
2023-05-02T09:25:39.576Z,78.75
2023-05-02T09:26:39.561Z,77.45
2023-05-02T09:27:39.556Z,78.00
2023-05-02T09:28:39.552Z,76.94
2023-05-02T09:29:39.528Z,77.17
2023-05-02T09:30:39.552Z,77.97
2023-05-02T09:32:39.547Z,75.44
2023-05-02T09:33:39.489Z,73.84
2023-05-02T09:34:39.512Z,74.39
2023-05-02T09:35:39.463Z,74.26
2023-05-02T09:36:39.466Z,73.30
2023-05-02T09:37:39.442Z,74.46
2023-05-02T09:38:39.415Z,72.73
2023-05-02T09:39:39.411Z,73.91
2023-05-02T09:40:39.403Z,72.74
2023-05-02T09:41:39.372Z,74.75
2023-05-02T09:42:39.388Z,74.64
2023-05-02T09:43:39.361Z,74.55
2023-05-02T09:44:39.447Z,74.50
2023-05-02T09:45:39.356Z,75.46
2023-05-02T09:46:39.413Z,74.62
2023-05-02T09:47:39.337Z,74.41
2023-05-02T09:48:39.319Z,72.21
2023-05-02T09:49:39.319Z,72.30
2023-05-02T09:50:39.275Z,73.07
2023-05-02T09:51:39.256Z,72.41
2023-05-02T09:52:39.250Z,73.41
2023-05-02T09:53:39.239Z,74.24
2023-05-02T09:54:39.228Z,74.74
2023-05-02T09:55:39.204Z,73.75
2023-05-02T09:56:39.206Z,74.60
2023-05-02T09:57:39.249Z,73.18
2023-05-02T09:58:39.184Z,72.92
2023-05-02T09:59:39.203Z,71.23
2023-05-02T10:00:39.144Z,71.13
2023-05-02T10:01:39.209Z,68.69
2023-05-02T10:02:39.146Z,69.73
2023-05-02T10:03:39.150Z,69.13
2023-05-02T10:04:39.288Z,71.15
2023-05-02T10:05:39.127Z,70.06
2023-05-02T10:06:39.112Z,70.87
2023-05-02T10:07:39.059Z,70.28
2023-05-02T10:08:39.058Z,71.89
2023-05-02T10:09:39.223Z,72.61
2023-05-02T10:10:39.026Z,71.57
2023-05-02T10:11:39.037Z,70.72
2023-05-02T10:12:39.021Z,71.29
2023-05-02T10:13:38.986Z,71.50
2023-05-02T10:14:38.978Z,71.78
2023-05-02T10:15:39.020Z,71.02
2023-05-02T10:16:38.956Z,71.75
2023-05-02T10:17:38.996Z,71.94
2023-05-02T10:18:38.940Z,72.27
2023-05-02T10:19:38.913Z,73.43
2023-05-02T10:20:38.905Z,73.34
2023-05-02T10:21:38.878Z,73.92
2023-05-02T10:22:38.890Z,73.50
2023-05-02T10:23:38.886Z,72.03
2023-05-02T10:24:38.850Z,70.97
2023-05-02T10:25:38.835Z,70.88
2023-05-02T10:26:38.817Z,69.67
2023-05-02T10:27:38.818Z,69.92
2023-05-02T10:28:38.821Z,70.03
2023-05-02T10:29:38.822Z,70.17
2023-05-02T10:30:38.825Z,67.22
2023-05-02T10:31:38.816Z,64.92
2023-05-02T10:32:38.853Z,65.90
2023-05-02T10:33:38.776Z,64.47
2023-05-02T10:34:38.807Z,65.97
2023-05-02T10:35:38.719Z,65.89
2023-05-02T10:36:38.733Z,66.17
2023-05-02T10:37:38.727Z,65.87
2023-05-02T10:38:38.682Z,65.28
2023-05-02T10:39:38.662Z,65.67
2023-05-02T10:40:38.674Z,65.61
2023-05-02T10:41:38.629Z,64.61
2023-05-02T10:42:38.649Z,66.08
2023-05-02T10:43:38.624Z,67.04
2023-05-02T10:44:38.683Z,67.49
2023-05-02T10:45:38.624Z,67.08
2023-05-02T10:46:38.598Z,65.05
2023-05-02T10:47:38.600Z,66.78
2023-05-02T10:48:38.562Z,67.08
2023-05-02T10:49:38.565Z,68.69
2023-05-02T10:50:38.538Z,68.74
2023-05-02T10:51:38.582Z,67.94
2023-05-02T10:52:38.615Z,67.14
2023-05-02T10:53:38.496Z,66.27
2023-05-02T10:54:38.488Z,66.18
2023-05-02T10:55:38.467Z,66.17
2023-05-02T10:56:38.476Z,65.48
2023-05-02T10:57:38.447Z,65.66
2023-05-02T10:58:38.421Z,67.31
2023-05-02T10:59:38.420Z,68.21
2023-05-02T11:00:38.445Z,68.28
2023-05-02T11:01:38.404Z,68.02
2023-05-02T11:02:38.475Z,69.03
2023-05-02T11:03:38.399Z,68.16
2023-05-02T11:04:38.352Z,68.46
2023-05-02T11:05:38.370Z,68.20
2023-05-02T11:06:38.424Z,69.04
2023-05-02T11:07:38.344Z,70.68
2023-05-02T11:08:38.312Z,70.45
2023-05-02T11:09:38.293Z,70.40
2023-05-02T11:10:38.308Z,71.96
2023-05-02T11:11:38.271Z,71.69
2023-05-02T11:12:38.282Z,74.23
2023-05-02T11:13:38.264Z,76.51
2023-05-02T11:14:38.232Z,77.94
2023-05-02T11:15:38.258Z,78.74
2023-05-02T11:16:38.248Z,78.62
2023-05-02T11:17:38.215Z,78.79
2023-05-02T11:18:38.234Z,78.15
2023-05-02T11:19:38.199Z,78.89
2023-05-02T11:20:38.192Z,79.51
2023-05-02T11:21:38.136Z,79.24
2023-05-02T11:22:38.198Z,79.89
2023-05-02T11:23:38.123Z,80.28
2023-05-02T11:24:38.109Z,80.62
2023-05-02T11:25:38.128Z,80.44
2023-05-02T11:26:38.105Z,80.71
2023-05-02T11:27:38.071Z,81.36
2023-05-02T11:28:38.139Z,81.70
2023-05-02T11:29:38.038Z,82.66
2023-05-02T11:30:38.035Z,83.53
2023-05-02T11:31:38.056Z,84.17
2023-05-02T11:32:38.047Z,83.65
2023-05-02T11:33:37.994Z,83.75
2023-05-02T11:34:37.985Z,83.92
2023-05-02T11:35:37.974Z,84.01
2023-05-02T11:36:37.954Z,82.84
2023-05-02T11:37:37.950Z,83.19
2023-05-02T11:38:37.952Z,82.95
2023-05-02T11:39:37.906Z,82.53
2023-05-02T11:40:37.908Z,80.26
2023-05-02T11:41:37.912Z,80.43
2023-05-02T11:42:37.880Z,80.35
2023-05-02T11:43:37.883Z,79.11
2023-05-02T11:44:37.878Z,79.23
2023-05-02T11:45:37.833Z,78.09
2023-05-02T11:46:37.963Z,77.30
2023-05-02T11:47:37.819Z,76.84
2023-05-02T11:48:37.858Z,76.51
2023-05-02T11:49:37.802Z,76.36
2023-05-02T11:50:40.033Z,74.09
2023-05-02T11:51:37.804Z,72.27
2023-05-02T11:52:37.785Z,69.25
2023-05-02T11:53:37.760Z,67.39
2023-05-02T11:54:37.761Z,63.94
2023-05-02T11:55:37.727Z,58.32
2023-05-02T11:56:37.806Z,57.89
2023-05-02T11:57:37.718Z,61.50
2023-05-02T11:58:37.695Z,60.07
2023-05-02T11:59:37.690Z,62.94
2023-05-02T12:00:37.694Z,61.65
2023-05-02T12:01:37.679Z,59.48
2023-05-02T12:02:37.978Z,56.85
2023-05-02T12:03:37.699Z,57.84
2023-05-02T12:04:37.712Z,59.09
2023-05-02T12:05:37.721Z,56.12
2023-05-02T12:06:37.721Z,58.41
2023-05-02T12:07:37.642Z,55.26
2023-05-02T12:08:37.629Z,57.19
2023-05-02T12:09:37.605Z,58.19
2023-05-02T12:10:37.612Z,58.86
2023-05-02T12:11:37.560Z,63.22
2023-05-02T12:12:37.578Z,60.73
2023-05-02T12:13:37.544Z,59.25
2023-05-02T12:19:41.241Z,62.12
2023-05-02T12:19:47.105Z,67.42
2023-05-02T12:20:47.095Z,68.39
2023-05-02T12:21:47.091Z,65.88
2023-05-02T12:22:47.080Z,66.83
2023-05-02T12:23:47.067Z,68.22
2023-05-02T12:24:47.070Z,65.69
2023-05-02T12:25:47.044Z,66.26
2023-05-02T12:26:47.040Z,65.17
2023-05-02T12:27:47.003Z,64.81
2023-05-02T12:28:47.009Z,66.18
2023-05-02T12:29:47.076Z,66.55
2023-05-02T12:30:46.967Z,67.95
2023-05-02T12:31:47.018Z,68.96
2023-05-02T12:32:46.969Z,69.74
2023-05-02T12:33:46.946Z,71.32
2023-05-02T12:34:46.927Z,72.10
2023-05-02T12:35:46.976Z,71.56
2023-05-02T12:36:46.898Z,71.72
2023-05-02T12:37:47.421Z,70.98
2023-05-02T12:38:46.878Z,70.09
2023-05-02T12:39:46.879Z,69.02
2023-05-02T12:40:46.842Z,69.17
2023-05-02T12:41:46.847Z,68.67
2023-05-02T12:42:46.820Z,69.09
2023-05-02T12:43:46.808Z,70.12
2023-05-02T12:44:46.821Z,69.85
2023-05-02T12:45:46.780Z,72.23
2023-05-02T12:46:46.864Z,70.39